sensor_id;sensor_type;location;lat;lon;timestamp;temperature;humidity
18141;DHT22;9196;49.194;12.526;2022-07-18T00:00:38;16.40;71.40
18141;DHT22;9196;49.194;12.526;2022-07-18T00:03:05;16.40;71.10
18141;DHT22;9196;49.194;12.526;2022-07-18T00:05:32;16.30;72.50
18141;DHT22;9196;49.194;12.526;2022-07-18T00:07:58;16.30;72.30
18141;DHT22;9196;49.194;12.526;2022-07-18T00:10:25;16.20;72.20
18141;DHT22;9196;49.194;12.526;2022-07-18T00:12:52;16.20;72.40
18141;DHT22;9196;49.194;12.526;2022-07-18T00:15:20;16.00;73.10
18141;DHT22;9196;49.194;12.526;2022-07-18T00:17:47;15.90;73.10
18141;DHT22;9196;49.194;12.526;2022-07-18T00:20:14;15.90;73.00
18141;DHT22;9196;49.194;12.526;2022-07-18T00:22:40;15.90;73.50
18141;DHT22;9196;49.194;12.526;2022-07-18T00:25:07;15.90;74.40
18141;DHT22;9196;49.194;12.526;2022-07-18T00:27:34;15.90;74.30
18141;DHT22;9196;49.194;12.526;2022-07-18T00:30:02;15.80;74.70
18141;DHT22;9196;49.194;12.526;2022-07-18T00:32:30;15.80;75.60
18141;DHT22;9196;49.194;12.526;2022-07-18T00:34:57;15.80;76.40
18141;DHT22;9196;49.194;12.526;2022-07-18T00:37:23;15.80;76.90
18141;DHT22;9196;49.194;12.526;2022-07-18T00:39:50;15.80;77.50
18141;DHT22;9196;49.194;12.526;2022-07-18T00:42:17;15.70;77.80
18141;DHT22;9196;49.194;12.526;2022-07-18T00:44:44;15.70;78.00
18141;DHT22;9196;49.194;12.526;2022-07-18T00:47:10;15.70;77.70
18141;DHT22;9196;49.194;12.526;2022-07-18T00:52:06;15.60;79.30
18141;DHT22;9196;49.194;12.526;2022-07-18T00:54:33;15.60;79.10
18141;DHT22;9196;49.194;12.526;2022-07-18T00:57:00;15.50;79.60
18141;DHT22;9196;49.194;12.526;2022-07-18T00:59:27;15.50;79.50
18141;DHT22;9196;49.194;12.526;2022-07-18T01:02:08;15.50;80.10
18141;DHT22;9196;49.194;12.526;2022-07-18T01:04:35;15.40;80.50
18141;DHT22;9196;49.194;12.526;2022-07-18T01:07:03;15.30;81.20
18141;DHT22;9196;49.194;12.526;2022-07-18T01:09:29;15.30;81.80
18141;DHT22;9196;49.194;12.526;2022-07-18T01:11:56;15.20;82.80
18141;DHT22;9196;49.194;12.526;2022-07-18T01:14:23;15.20;82.90
18141;DHT22;9196;49.194;12.526;2022-07-18T01:16:51;15.20;83.10
18141;DHT22;9196;49.194;12.526;2022-07-18T01:19:18;15.10;84.10
18141;DHT22;9196;49.194;12.526;2022-07-18T01:21:46;15.10;85.20
18141;DHT22;9196;49.194;12.526;2022-07-18T01:24:12;15.10;86.30
18141;DHT22;9196;49.194;12.526;2022-07-18T01:26:39;15.00;87.20
18141;DHT22;9196;49.194;12.526;2022-07-18T01:29:06;14.90;87.80
18141;DHT22;9196;49.194;12.526;2022-07-18T01:31:33;14.90;88.30
18141;DHT22;9196;49.194;12.526;2022-07-18T01:34:00;14.90;89.30
18141;DHT22;9196;49.194;12.526;2022-07-18T01:36:27;14.80;90.10
18141;DHT22;9196;49.194;12.526;2022-07-18T01:38:55;14.80;90.00
18141;DHT22;9196;49.194;12.526;2022-07-18T01:41:22;14.80;90.00
18141;DHT22;9196;49.194;12.526;2022-07-18T01:43:49;14.80;90.60
18141;DHT22;9196;49.194;12.526;2022-07-18T01:46:16;14.70;91.20
18141;DHT22;9196;49.194;12.526;2022-07-18T01:48:42;14.70;91.10
18141;DHT22;9196;49.194;12.526;2022-07-18T01:51:09;14.70;91.50
18141;DHT22;9196;49.194;12.526;2022-07-18T01:53:36;14.60;91.70
18141;DHT22;9196;49.194;12.526;2022-07-18T01:56:06;14.60;92.20
18141;DHT22;9196;49.194;12.526;2022-07-18T01:58:34;14.60;92.10
18141;DHT22;9196;49.194;12.526;2022-07-18T02:01:01;14.60;92.60
18141;DHT22;9196;49.194;12.526;2022-07-18T02:03:27;14.60;92.40
18141;DHT22;9196;49.194;12.526;2022-07-18T02:05:54;14.50;92.30
18141;DHT22;9196;49.194;12.526;2022-07-18T02:08:21;14.50;92.40
18141;DHT22;9196;49.194;12.526;2022-07-18T02:10:48;14.50;92.50
18141;DHT22;9196;49.194;12.526;2022-07-18T02:13:16;14.50;92.70
18141;DHT22;9196;49.194;12.526;2022-07-18T02:15:45;14.50;92.90
18141;DHT22;9196;49.194;12.526;2022-07-18T02:18:12;14.40;93.40
18141;DHT22;9196;49.194;12.526;2022-07-18T02:20:39;14.40;93.40
18141;DHT22;9196;49.194;12.526;2022-07-18T02:23:06;14.30;93.30
18141;DHT22;9196;49.194;12.526;2022-07-18T02:25:33;14.30;92.70
18141;DHT22;9196;49.194;12.526;2022-07-18T02:28:00;14.30;93.00
18141;DHT22;9196;49.194;12.526;2022-07-18T02:30:28;14.30;93.10
18141;DHT22;9196;49.194;12.526;2022-07-18T02:32:55;14.10;93.20
18141;DHT22;9196;49.194;12.526;2022-07-18T02:35:22;14.10;93.10
18141;DHT22;9196;49.194;12.526;2022-07-18T02:37:49;14.10;93.30
18141;DHT22;9196;49.194;12.526;2022-07-18T02:40:15;14.10;93.30
18141;DHT22;9196;49.194;12.526;2022-07-18T02:42:42;14.10;93.20
18141;DHT22;9196;49.194;12.526;2022-07-18T02:45:09;14.00;93.50
18141;DHT22;9196;49.194;12.526;2022-07-18T02:47:38;14.00;93.70
18141;DHT22;9196;49.194;12.526;2022-07-18T02:50:06;14.00;94.10
18141;DHT22;9196;49.194;12.526;2022-07-18T02:52:33;13.90;94.60
18141;DHT22;9196;49.194;12.526;2022-07-18T02:55:00;14.00;94.70
18141;DHT22;9196;49.194;12.526;2022-07-18T02:57:27;13.90;95.10
18141;DHT22;9196;49.194;12.526;2022-07-18T02:59:53;13.90;95.30
18141;DHT22;9196;49.194;12.526;2022-07-18T03:02:20;13.90;94.90
18141;DHT22;9196;49.194;12.526;2022-07-18T03:04:48;13.90;95.10
18141;DHT22;9196;49.194;12.526;2022-07-18T03:07:15;13.90;95.50
18141;DHT22;9196;49.194;12.526;2022-07-18T03:09:42;13.90;94.80
18141;DHT22;9196;49.194;12.526;2022-07-18T03:12:09;13.90;95.00
18141;DHT22;9196;49.194;12.526;2022-07-18T03:14:36;13.80;94.80
18141;DHT22;9196;49.194;12.526;2022-07-18T03:17:02;13.80;95.00
18141;DHT22;9196;49.194;12.526;2022-07-18T03:19:29;13.80;95.40
18141;DHT22;9196;49.194;12.526;2022-07-18T03:21:57;13.80;95.10
18141;DHT22;9196;49.194;12.526;2022-07-18T03:24:24;13.80;95.20
18141;DHT22;9196;49.194;12.526;2022-07-18T03:26:51;13.80;95.10
18141;DHT22;9196;49.194;12.526;2022-07-18T03:29:17;13.70;95.10
18141;DHT22;9196;49.194;12.526;2022-07-18T03:31:44;13.70;95.60
18141;DHT22;9196;49.194;12.526;2022-07-18T03:34:11;13.70;95.80
18141;DHT22;9196;49.194;12.526;2022-07-18T03:36:38;13.70;96.20
18141;DHT22;9196;49.194;12.526;2022-07-18T03:39:07;13.70;95.90
18141;DHT22;9196;49.194;12.526;2022-07-18T03:41:35;13.70;95.90
18141;DHT22;9196;49.194;12.526;2022-07-18T03:44:02;13.60;95.70
18141;DHT22;9196;49.194;12.526;2022-07-18T03:46:29;13.60;95.90
18141;DHT22;9196;49.194;12.526;2022-07-18T03:48:56;13.60;95.80
18141;DHT22;9196;49.194;12.526;2022-07-18T03:51:23;13.50;95.70
18141;DHT22;9196;49.194;12.526;2022-07-18T03:53:50;13.60;95.80
18141;DHT22;9196;49.194;12.526;2022-07-18T03:56:18;13.60;95.90
18141;DHT22;9196;49.194;12.526;2022-07-18T03:58:46;13.60;96.10
18141;DHT22;9196;49.194;12.526;2022-07-18T04:01:12;13.50;96.20
18141;DHT22;9196;49.194;12.526;2022-07-18T04:03:39;13.60;96.30
18141;DHT22;9196;49.194;12.526;2022-07-18T04:06:06;13.60;96.40
18141;DHT22;9196;49.194;12.526;2022-07-18T04:08:33;13.60;96.50
18141;DHT22;9196;49.194;12.526;2022-07-18T04:11:00;13.70;96.40
18141;DHT22;9196;49.194;12.526;2022-07-18T04:13:28;13.80;96.30
18141;DHT22;9196;49.194;12.526;2022-07-18T04:15:55;13.90;96.40
18141;DHT22;9196;49.194;12.526;2022-07-18T04:18:22;13.90;96.20
18141;DHT22;9196;49.194;12.526;2022-07-18T04:20:48;14.00;96.20
18141;DHT22;9196;49.194;12.526;2022-07-18T04:23:16;14.10;96.00
18141;DHT22;9196;49.194;12.526;2022-07-18T04:25:44;14.20;96.00
18141;DHT22;9196;49.194;12.526;2022-07-18T04:28:12;14.20;96.10
18141;DHT22;9196;49.194;12.526;2022-07-18T04:30:41;14.30;96.40
18141;DHT22;9196;49.194;12.526;2022-07-18T04:33:10;14.40;96.20
18141;DHT22;9196;49.194;12.526;2022-07-18T04:35:37;14.40;96.20
18141;DHT22;9196;49.194;12.526;2022-07-18T04:38:05;14.50;96.10
18141;DHT22;9196;49.194;12.526;2022-07-18T04:40:32;14.60;96.00
18141;DHT22;9196;49.194;12.526;2022-07-18T04:42:58;14.70;96.00
18141;DHT22;9196;49.194;12.526;2022-07-18T04:45:25;14.80;96.00
18141;DHT22;9196;49.194;12.526;2022-07-18T04:47:54;14.80;95.70
18141;DHT22;9196;49.194;12.526;2022-07-18T04:50:22;14.80;95.70
18141;DHT22;9196;49.194;12.526;2022-07-18T04:52:49;14.60;95.10
18141;DHT22;9196;49.194;12.526;2022-07-18T04:55:18;14.60;95.70
18141;DHT22;9196;49.194;12.526;2022-07-18T04:57:45;14.60;95.50
18141;DHT22;9196;49.194;12.526;2022-07-18T05:00:15;14.70;95.70
18141;DHT22;9196;49.194;12.526;2022-07-18T05:02:42;14.80;95.50
18141;DHT22;9196;49.194;12.526;2022-07-18T05:05:12;14.90;95.50
18141;DHT22;9196;49.194;12.526;2022-07-18T05:07:40;15.10;95.30
18141;DHT22;9196;49.194;12.526;2022-07-18T05:10:08;15.20;95.10
18141;DHT22;9196;49.194;12.526;2022-07-18T05:12:35;15.40;94.70
18141;DHT22;9196;49.194;12.526;2022-07-18T05:15:05;15.40;94.00
18141;DHT22;9196;49.194;12.526;2022-07-18T05:17:32;15.20;94.10
18141;DHT22;9196;49.194;12.526;2022-07-18T05:19:59;15.20;94.00
18141;DHT22;9196;49.194;12.526;2022-07-18T05:22:27;15.20;94.40
18141;DHT22;9196;49.194;12.526;2022-07-18T05:24:53;15.30;93.80
18141;DHT22;9196;49.194;12.526;2022-07-18T05:27:20;15.40;92.80
18141;DHT22;9196;49.194;12.526;2022-07-18T05:29:47;15.40;92.50
18141;DHT22;9196;49.194;12.526;2022-07-18T05:32:14;15.60;92.80
18141;DHT22;9196;49.194;12.526;2022-07-18T05:34:40;15.60;92.90
18141;DHT22;9196;49.194;12.526;2022-07-18T05:37:07;15.70;93.00
18141;DHT22;9196;49.194;12.526;2022-07-18T05:39:35;15.80;92.60
18141;DHT22;9196;49.194;12.526;2022-07-18T05:42:02;15.90;92.50
18141;DHT22;9196;49.194;12.526;2022-07-18T05:44:29;15.90;92.30
18141;DHT22;9196;49.194;12.526;2022-07-18T05:46:56;16.00;92.50
18141;DHT22;9196;49.194;12.526;2022-07-18T05:49:22;16.10;92.30
18141;DHT22;9196;49.194;12.526;2022-07-18T05:51:49;16.20;92.40
18141;DHT22;9196;49.194;12.526;2022-07-18T05:54:16;16.40;92.40
18141;DHT22;9196;49.194;12.526;2022-07-18T05:56:47;16.50;92.20
18141;DHT22;9196;49.194;12.526;2022-07-18T05:59:13;16.60;91.50
18141;DHT22;9196;49.194;12.526;2022-07-18T06:01:40;16.70;91.60
18141;DHT22;9196;49.194;12.526;2022-07-18T06:04:07;16.90;91.70
18141;DHT22;9196;49.194;12.526;2022-07-18T06:06:34;17.00;91.60
18141;DHT22;9196;49.194;12.526;2022-07-18T06:09:01;17.10;91.50
18141;DHT22;9196;49.194;12.526;2022-07-18T06:11:28;17.30;91.30
18141;DHT22;9196;49.194;12.526;2022-07-18T06:13:57;17.40;91.00
18141;DHT22;9196;49.194;12.526;2022-07-18T06:16:24;17.50;90.60
18141;DHT22;9196;49.194;12.526;2022-07-18T06:18:51;17.60;90.40
18141;DHT22;9196;49.194;12.526;2022-07-18T06:21:17;17.60;90.30
18141;DHT22;9196;49.194;12.526;2022-07-18T06:23:44;17.70;90.50
18141;DHT22;9196;49.194;12.526;2022-07-18T06:26:11;17.90;90.30
18141;DHT22;9196;49.194;12.526;2022-07-18T06:28:38;18.00;90.10
18141;DHT22;9196;49.194;12.526;2022-07-18T06:31:06;18.20;88.90
18141;DHT22;9196;49.194;12.526;2022-07-18T06:33:33;18.20;88.50
18141;DHT22;9196;49.194;12.526;2022-07-18T06:36:00;18.30;88.90
18141;DHT22;9196;49.194;12.526;2022-07-18T06:38:27;18.40;87.80
18141;DHT22;9196;49.194;12.526;2022-07-18T06:40:54;18.50;87.80
18141;DHT22;9196;49.194;12.526;2022-07-18T06:43:20;18.60;86.80
18141;DHT22;9196;49.194;12.526;2022-07-18T06:45:47;18.60;87.00
18141;DHT22;9196;49.194;12.526;2022-07-18T06:48:16;18.70;86.20
18141;DHT22;9196;49.194;12.526;2022-07-18T06:50:42;18.80;86.80
18141;DHT22;9196;49.194;12.526;2022-07-18T06:53:10;18.90;84.50
18141;DHT22;9196;49.194;12.526;2022-07-18T06:55:36;19.00;84.50
18141;DHT22;9196;49.194;12.526;2022-07-18T06:58:03;19.20;85.90
18141;DHT22;9196;49.194;12.526;2022-07-18T07:00:30;19.30;84.40
18141;DHT22;9196;49.194;12.526;2022-07-18T07:02:57;19.40;82.70
18141;DHT22;9196;49.194;12.526;2022-07-18T07:05:25;19.50;82.70
18141;DHT22;9196;49.194;12.526;2022-07-18T07:07:51;19.70;82.10
18141;DHT22;9196;49.194;12.526;2022-07-18T07:10:18;19.80;81.00
18141;DHT22;9196;49.194;12.526;2022-07-18T07:12:47;19.90;81.40
18141;DHT22;9196;49.194;12.526;2022-07-18T07:15:15;20.00;81.00
18141;DHT22;9196;49.194;12.526;2022-07-18T07:17:43;20.20;79.70
18141;DHT22;9196;49.194;12.526;2022-07-18T07:20:12;20.30;79.80
18141;DHT22;9196;49.194;12.526;2022-07-18T07:22:44;20.40;79.70
18141;DHT22;9196;49.194;12.526;2022-07-18T07:25:12;20.60;79.00
18141;DHT22;9196;49.194;12.526;2022-07-18T07:27:38;20.80;78.20
18141;DHT22;9196;49.194;12.526;2022-07-18T07:30:07;20.90;77.50
18141;DHT22;9196;49.194;12.526;2022-07-18T07:32:35;21.00;77.10
18141;DHT22;9196;49.194;12.526;2022-07-18T07:35:02;21.20;78.00
18141;DHT22;9196;49.194;12.526;2022-07-18T07:37:29;21.30;76.60
18141;DHT22;9196;49.194;12.526;2022-07-18T07:39:57;21.40;76.10
18141;DHT22;9196;49.194;12.526;2022-07-18T07:42:24;21.50;76.70
18141;DHT22;9196;49.194;12.526;2022-07-18T07:44:51;21.70;75.50
18141;DHT22;9196;49.194;12.526;2022-07-18T07:47:17;21.80;75.10
18141;DHT22;9196;49.194;12.526;2022-07-18T07:49:44;21.90;74.50
18141;DHT22;9196;49.194;12.526;2022-07-18T07:52:11;22.00;76.20
18141;DHT22;9196;49.194;12.526;2022-07-18T07:54:39;22.10;76.90
18141;DHT22;9196;49.194;12.526;2022-07-18T07:57:08;22.20;74.90
18141;DHT22;9196;49.194;12.526;2022-07-18T07:59:34;22.40;74.90
18141;DHT22;9196;49.194;12.526;2022-07-18T08:02:01;22.60;75.40
18141;DHT22;9196;49.194;12.526;2022-07-18T08:04:28;22.70;74.00
18141;DHT22;9196;49.194;12.526;2022-07-18T08:06:55;22.90;73.10
18141;DHT22;9196;49.194;12.526;2022-07-18T08:09:22;23.00;72.60
18141;DHT22;9196;49.194;12.526;2022-07-18T08:11:48;23.10;71.90
18141;DHT22;9196;49.194;12.526;2022-07-18T08:14:17;23.20;72.30
18141;DHT22;9196;49.194;12.526;2022-07-18T08:16:43;23.30;71.40
18141;DHT22;9196;49.194;12.526;2022-07-18T08:19:10;23.40;72.20
18141;DHT22;9196;49.194;12.526;2022-07-18T08:21:37;23.60;72.60
18141;DHT22;9196;49.194;12.526;2022-07-18T08:24:04;23.80;71.60
18141;DHT22;9196;49.194;12.526;2022-07-18T08:26:31;23.90;70.90
18141;DHT22;9196;49.194;12.526;2022-07-18T08:28:59;24.00;71.10
18141;DHT22;9196;49.194;12.526;2022-07-18T08:31:27;24.10;70.00
18141;DHT22;9196;49.194;12.526;2022-07-18T08:33:54;24.20;67.70
18141;DHT22;9196;49.194;12.526;2022-07-18T08:36:21;24.20;68.10
18141;DHT22;9196;49.194;12.526;2022-07-18T08:38:48;24.30;67.80
18141;DHT22;9196;49.194;12.526;2022-07-18T08:41:16;24.40;66.90
18141;DHT22;9196;49.194;12.526;2022-07-18T08:43:44;24.50;67.70
18141;DHT22;9196;49.194;12.526;2022-07-18T08:46:12;24.60;67.70
18141;DHT22;9196;49.194;12.526;2022-07-18T08:48:41;24.70;68.40
18141;DHT22;9196;49.194;12.526;2022-07-18T08:51:08;24.90;68.90
18141;DHT22;9196;49.194;12.526;2022-07-18T08:53:36;25.10;67.20
18141;DHT22;9196;49.194;12.526;2022-07-18T08:56:03;25.30;66.30
18141;DHT22;9196;49.194;12.526;2022-07-18T08:58:30;25.50;65.90
18141;DHT22;9196;49.194;12.526;2022-07-18T09:00:58;25.70;63.30
18141;DHT22;9196;49.194;12.526;2022-07-18T09:03:25;25.60;60.90
18141;DHT22;9196;49.194;12.526;2022-07-18T09:06:04;25.60;60.00
18141;DHT22;9196;49.194;12.526;2022-07-18T09:08:31;25.60;59.80
18141;DHT22;9196;49.194;12.526;2022-07-18T09:11:00;25.80;62.00
18141;DHT22;9196;49.194;12.526;2022-07-18T09:13:36;25.90;59.40
18141;DHT22;9196;49.194;12.526;2022-07-18T09:16:04;26.10;58.20
18141;DHT22;9196;49.194;12.526;2022-07-18T09:18:32;26.20;58.60
18141;DHT22;9196;49.194;12.526;2022-07-18T09:21:00;26.30;58.10
18141;DHT22;9196;49.194;12.526;2022-07-18T09:23:31;26.40;58.00
18141;DHT22;9196;49.194;12.526;2022-07-18T09:25:59;26.50;56.50
18141;DHT22;9196;49.194;12.526;2022-07-18T09:28:26;26.50;55.30
18141;DHT22;9196;49.194;12.526;2022-07-18T09:30:53;26.40;56.10
18141;DHT22;9196;49.194;12.526;2022-07-18T09:33:20;26.30;55.10
18141;DHT22;9196;49.194;12.526;2022-07-18T09:35:49;26.40;55.90
18141;DHT22;9196;49.194;12.526;2022-07-18T09:38:17;26.60;54.80
18141;DHT22;9196;49.194;12.526;2022-07-18T09:40:46;26.60;53.30
18141;DHT22;9196;49.194;12.526;2022-07-18T09:43:15;26.70;54.20
18141;DHT22;9196;49.194;12.526;2022-07-18T09:45:44;26.90;54.50
18141;DHT22;9196;49.194;12.526;2022-07-18T09:48:14;26.90;55.00
18141;DHT22;9196;49.194;12.526;2022-07-18T09:50:42;27.00;54.20
18141;DHT22;9196;49.194;12.526;2022-07-18T09:53:12;27.10;51.90
18141;DHT22;9196;49.194;12.526;2022-07-18T09:55:48;27.20;53.60
18141;DHT22;9196;49.194;12.526;2022-07-18T09:58:17;27.10;50.50
18141;DHT22;9196;49.194;12.526;2022-07-18T10:00:44;27.10;50.60
18141;DHT22;9196;49.194;12.526;2022-07-18T10:03:12;27.20;50.20
18141;DHT22;9196;49.194;12.526;2022-07-18T10:05:40;27.30;50.50
18141;DHT22;9196;49.194;12.526;2022-07-18T10:08:09;27.50;50.90
18141;DHT22;9196;49.194;12.526;2022-07-18T10:10:36;27.60;51.70
18141;DHT22;9196;49.194;12.526;2022-07-18T10:13:06;27.80;52.10
18141;DHT22;9196;49.194;12.526;2022-07-18T10:15:35;27.90;50.40
18141;DHT22;9196;49.194;12.526;2022-07-18T10:18:04;28.10;51.60
18141;DHT22;9196;49.194;12.526;2022-07-18T10:20:34;28.30;50.70
18141;DHT22;9196;49.194;12.526;2022-07-18T10:23:07;28.40;49.20
18141;DHT22;9196;49.194;12.526;2022-07-18T10:25:35;28.40;48.40
18141;DHT22;9196;49.194;12.526;2022-07-18T10:28:08;28.40;48.60
18141;DHT22;9196;49.194;12.526;2022-07-18T10:30:43;28.50;48.90
18141;DHT22;9196;49.194;12.526;2022-07-18T10:33:39;28.60;48.30
18141;DHT22;9196;49.194;12.526;2022-07-18T10:36:08;28.50;47.80
18141;DHT22;9196;49.194;12.526;2022-07-18T10:38:36;28.70;48.70
18141;DHT22;9196;49.194;12.526;2022-07-18T10:41:08;28.60;47.60
18141;DHT22;9196;49.194;12.526;2022-07-18T10:43:44;28.40;47.50
18141;DHT22;9196;49.194;12.526;2022-07-18T10:46:11;28.50;48.10
18141;DHT22;9196;49.194;12.526;2022-07-18T10:48:56;28.40;46.40
18141;DHT22;9196;49.194;12.526;2022-07-18T10:51:30;28.30;46.00
18141;DHT22;9196;49.194;12.526;2022-07-18T10:59:39;28.60;47.40
18141;DHT22;9196;49.194;12.526;2022-07-18T11:02:33;28.90;47.70
18141;DHT22;9196;49.194;12.526;2022-07-18T11:05:01;29.10;46.60
18141;DHT22;9196;49.194;12.526;2022-07-18T11:07:27;29.20;47.00
18141;DHT22;9196;49.194;12.526;2022-07-18T11:09:54;29.30;46.70
18141;DHT22;9196;49.194;12.526;2022-07-18T11:12:29;29.30;45.00
18141;DHT22;9196;49.194;12.526;2022-07-18T11:15:09;29.20;46.40
18141;DHT22;9196;49.194;12.526;2022-07-18T11:18:00;29.30;45.40
18141;DHT22;9196;49.194;12.526;2022-07-18T11:20:39;29.30;45.90
18141;DHT22;9196;49.194;12.526;2022-07-18T11:23:15;29.50;46.70
18141;DHT22;9196;49.194;12.526;2022-07-18T11:25:42;29.60;46.50
18141;DHT22;9196;49.194;12.526;2022-07-18T11:28:10;29.70;46.10
18141;DHT22;9196;49.194;12.526;2022-07-18T11:30:39;29.90;45.00
18141;DHT22;9196;49.194;12.526;2022-07-18T11:33:20;29.90;43.30
18141;DHT22;9196;49.194;12.526;2022-07-18T11:35:48;29.80;43.80
18141;DHT22;9196;49.194;12.526;2022-07-18T11:38:15;29.40;43.90
18141;DHT22;9196;49.194;12.526;2022-07-18T11:40:49;29.30;45.60
18141;DHT22;9196;49.194;12.526;2022-07-18T11:43:23;29.50;47.00
18141;DHT22;9196;49.194;12.526;2022-07-18T11:46:02;29.70;45.30
18141;DHT22;9196;49.194;12.526;2022-07-18T11:48:29;29.80;43.80
18141;DHT22;9196;49.194;12.526;2022-07-18T11:50:56;30.00;45.10
18141;DHT22;9196;49.194;12.526;2022-07-18T11:53:23;29.90;43.70
18141;DHT22;9196;49.194;12.526;2022-07-18T11:55:50;29.70;44.50
18141;DHT22;9196;49.194;12.526;2022-07-18T11:58:17;29.40;43.90
18141;DHT22;9196;49.194;12.526;2022-07-18T12:00:45;29.10;43.80
18141;DHT22;9196;49.194;12.526;2022-07-18T12:03:15;29.20;44.90
18141;DHT22;9196;49.194;12.526;2022-07-18T12:05:44;29.40;44.30
18141;DHT22;9196;49.194;12.526;2022-07-18T12:08:31;29.70;46.80
18141;DHT22;9196;49.194;12.526;2022-07-18T12:11:03;30.00;44.00
18141;DHT22;9196;49.194;12.526;2022-07-18T12:13:42;30.10;44.10
18141;DHT22;9196;49.194;12.526;2022-07-18T12:16:24;30.30;43.60
18141;DHT22;9196;49.194;12.526;2022-07-18T12:18:54;30.40;43.00
18141;DHT22;9196;49.194;12.526;2022-07-18T12:21:22;30.30;42.90
18141;DHT22;9196;49.194;12.526;2022-07-18T12:23:49;30.00;43.10
18141;DHT22;9196;49.194;12.526;2022-07-18T12:26:29;29.90;43.50
18141;DHT22;9196;49.194;12.526;2022-07-18T12:29:05;30.00;43.60
18141;DHT22;9196;49.194;12.526;2022-07-18T12:31:40;30.00;43.80
18141;DHT22;9196;49.194;12.526;2022-07-18T12:34:12;30.10;43.90
18141;DHT22;9196;49.194;12.526;2022-07-18T12:37:02;30.20;43.00
18141;DHT22;9196;49.194;12.526;2022-07-18T12:39:31;30.40;43.40
18141;DHT22;9196;49.194;12.526;2022-07-18T12:41:59;30.50;43.40
18141;DHT22;9196;49.194;12.526;2022-07-18T12:44:27;30.70;44.60
18141;DHT22;9196;49.194;12.526;2022-07-18T12:46:55;31.00;43.00
18141;DHT22;9196;49.194;12.526;2022-07-18T12:49:23;31.00;41.70
18141;DHT22;9196;49.194;12.526;2022-07-18T12:51:50;30.90;42.90
18141;DHT22;9196;49.194;12.526;2022-07-18T12:54:17;30.90;42.30
18141;DHT22;9196;49.194;12.526;2022-07-18T12:56:44;30.80;41.40
18141;DHT22;9196;49.194;12.526;2022-07-18T12:59:10;30.70;41.90
18141;DHT22;9196;49.194;12.526;2022-07-18T13:01:37;30.60;42.10
18141;DHT22;9196;49.194;12.526;2022-07-18T13:04:04;30.80;41.80
18141;DHT22;9196;49.194;12.526;2022-07-18T13:06:33;30.80;41.20
18141;DHT22;9196;49.194;12.526;2022-07-18T13:08:59;31.00;42.30
18141;DHT22;9196;49.194;12.526;2022-07-18T13:11:26;31.30;42.90
18141;DHT22;9196;49.194;12.526;2022-07-18T13:13:53;31.60;42.40
18141;DHT22;9196;49.194;12.526;2022-07-18T13:16:20;31.80;41.70
18141;DHT22;9196;49.194;12.526;2022-07-18T13:18:47;31.60;40.70
18141;DHT22;9196;49.194;12.526;2022-07-18T13:21:13;31.50;41.40
18141;DHT22;9196;49.194;12.526;2022-07-18T13:23:43;31.30;40.30
18141;DHT22;9196;49.194;12.526;2022-07-18T13:26:10;31.10;40.70
18141;DHT22;9196;49.194;12.526;2022-07-18T13:28:36;30.90;40.70
18141;DHT22;9196;49.194;12.526;2022-07-18T13:31:03;30.80;41.80
18141;DHT22;9196;49.194;12.526;2022-07-18T13:33:30;31.00;41.20
18141;DHT22;9196;49.194;12.526;2022-07-18T13:35:57;30.80;40.60
18141;DHT22;9196;49.194;12.526;2022-07-18T13:38:23;30.80;40.70
18141;DHT22;9196;49.194;12.526;2022-07-18T13:40:51;30.80;41.10
18141;DHT22;9196;49.194;12.526;2022-07-18T13:43:18;31.00;41.90
18141;DHT22;9196;49.194;12.526;2022-07-18T13:45:45;31.10;41.80
18141;DHT22;9196;49.194;12.526;2022-07-18T13:48:12;31.50;42.70
18141;DHT22;9196;49.194;12.526;2022-07-18T13:50:39;31.80;42.40
18141;DHT22;9196;49.194;12.526;2022-07-18T13:53:06;32.20;41.80
18141;DHT22;9196;49.194;12.526;2022-07-18T13:55:33;32.40;41.80
18141;DHT22;9196;49.194;12.526;2022-07-18T13:58:01;32.60;40.60
18141;DHT22;9196;49.194;12.526;2022-07-18T14:00:28;32.90;41.50
18141;DHT22;9196;49.194;12.526;2022-07-18T14:02:55;33.00;39.60
18141;DHT22;9196;49.194;12.526;2022-07-18T14:05:22;33.00;39.20
18141;DHT22;9196;49.194;12.526;2022-07-18T14:07:50;32.90;40.70
18141;DHT22;9196;49.194;12.526;2022-07-18T14:10:17;32.70;39.30
18141;DHT22;9196;49.194;12.526;2022-07-18T14:12:44;32.50;40.10
18141;DHT22;9196;49.194;12.526;2022-07-18T14:15:12;32.60;39.50
18141;DHT22;9196;49.194;12.526;2022-07-18T14:17:40;32.40;38.70
18141;DHT22;9196;49.194;12.526;2022-07-18T14:20:08;32.10;39.60
18141;DHT22;9196;49.194;12.526;2022-07-18T14:22:35;32.20;39.40
18141;DHT22;9196;49.194;12.526;2022-07-18T14:25:03;32.40;40.70
18141;DHT22;9196;49.194;12.526;2022-07-18T14:27:30;32.60;38.60
18141;DHT22;9196;49.194;12.526;2022-07-18T14:29:57;32.60;40.30
18141;DHT22;9196;49.194;12.526;2022-07-18T14:32:26;32.60;40.10
18141;DHT22;9196;49.194;12.526;2022-07-18T14:34:53;32.60;39.40
18141;DHT22;9196;49.194;12.526;2022-07-18T14:37:20;32.60;38.20
18141;DHT22;9196;49.194;12.526;2022-07-18T14:39:47;32.40;38.60
18141;DHT22;9196;49.194;12.526;2022-07-18T14:42:14;32.40;40.30
18141;DHT22;9196;49.194;12.526;2022-07-18T14:44:41;32.40;39.30
18141;DHT22;9196;49.194;12.526;2022-07-18T14:47:07;32.50;40.00
18141;DHT22;9196;49.194;12.526;2022-07-18T14:49:36;32.70;39.90
18141;DHT22;9196;49.194;12.526;2022-07-18T14:52:03;32.80;39.30
18141;DHT22;9196;49.194;12.526;2022-07-18T14:54:30;32.90;39.70
18141;DHT22;9196;49.194;12.526;2022-07-18T14:56:56;32.90;37.90
18141;DHT22;9196;49.194;12.526;2022-07-18T14:59:23;32.60;37.80
18141;DHT22;9196;49.194;12.526;2022-07-18T15:01:50;32.30;38.10
18141;DHT22;9196;49.194;12.526;2022-07-18T15:04:17;32.30;40.00
18141;DHT22;9196;49.194;12.526;2022-07-18T15:06:45;32.40;39.10
18141;DHT22;9196;49.194;12.526;2022-07-18T15:09:12;32.50;39.30
18141;DHT22;9196;49.194;12.526;2022-07-18T15:11:39;32.40;39.10
18141;DHT22;9196;49.194;12.526;2022-07-18T15:14:06;32.20;38.10
18141;DHT22;9196;49.194;12.526;2022-07-18T15:16:33;31.90;38.70
18141;DHT22;9196;49.194;12.526;2022-07-18T15:18:59;31.80;38.60
18141;DHT22;9196;49.194;12.526;2022-07-18T15:21:26;31.60;39.60
18141;DHT22;9196;49.194;12.526;2022-07-18T15:23:54;31.70;40.00
18141;DHT22;9196;49.194;12.526;2022-07-18T15:26:21;31.80;39.40
18141;DHT22;9196;49.194;12.526;2022-07-18T15:28:48;31.90;37.80
18141;DHT22;9196;49.194;12.526;2022-07-18T15:31:14;31.80;36.90
18141;DHT22;9196;49.194;12.526;2022-07-18T15:33:41;31.60;39.20
18141;DHT22;9196;49.194;12.526;2022-07-18T15:36:08;31.70;39.70
18141;DHT22;9196;49.194;12.526;2022-07-18T15:38:35;31.60;40.60
18141;DHT22;9196;49.194;12.526;2022-07-18T15:41:06;31.70;40.00
18141;DHT22;9196;49.194;12.526;2022-07-18T15:43:33;31.50;39.60